Terminal Aerodrome Forecast
Issued by NWS

Home | Current Version | Previous Version | Text Only | Print | Product List | Glossary On
Versions: 1 2 3 4 5 6 7 8 9 10 11 12 13
000
FTUS43 KGRR 201100
TAFJXN
TAF
KJXN 201138Z 2012/2112 20012KT P6SM SCT150 BKN250
     FM201800 20015G28KT P6SM VCTS BKN050CB
     FM202100 20018G28KT 4SM TSRA BR OVC025CB
     FM210000 23012KT P6SM VCTS SCT025 BKN050CB
     FM210200 24009KT P6SM BKN100
     FM210600 27004KT P6SM OVC050=

USA.gov is the U.S. government's official web portal to all federal, state and local government web resources and services.